Weather at Virden (West) Airport [CLOSED]

Public forecast

Using degrees Celsius for public forecast. Weather courtesy of forecast.io.

Closest aviation weather report (METAR) to Virden (West) Airport

Closest report is Brandon Municipal Airport, 43.2 nm (79.9 km) E. Retrieved 2020/10/27 08:00 UTC (16 minutes ago):

CYBR 270800Z 25009KT 15SM SCT190 SCT250 M10/M12 A2988 RMK AC3CI1 SLP150

Closest aviation forecast (TAF) to Virden (West) Airport

Closest forecast is Brandon Municipal Airport, 43.2 nm (79.9 km) E. Retrieved 2020/10/27 06:42 UTC (2 hours ago):

TAF CYBR 270538Z 2706/2718 25012KT P6SM FEW050 BKN250 FM271200 25012KT P6SM BKN120 FM271500 24015G25KT 6SM -SN SCT015 OVC040 TEMPO 2715/2718 2SM -SN OVC015 RMK NXT FCST BY 271200Z